Airfield :
LOGIN :

Register | Disclaimer

   EN    FR    IT 

 










Legend :    VFR   Marginal VFR   IFR   Intensive IFR   Very Intensive IFR
Visi :
Ceiling :
>= 8 km
>= 3000ft
5 to 8 km
1000 to 3000 ft
1500m to 5 km
500 to 1000 ft
800 to 1500m
200 to 500 ft
< 800m
< 200 ft
Symbols :   Thunderstorms  Fog  Heavy snow  Heavy precipitations  Wind > 20 kt
SIGMETs :     Misc.  Thunderstorms  Icing  Turbulence  Mountain Waves  Volcanic Ashes






- Airport Elevation : 11 ft
- IATA code : MJV


LELC - Murcia San Javier

CURRENT METAR :
  • 211030Z 31010KT 9999 FEW015 FEW045CB 11/11 Q1011 NOSIG

EXPIRED METARs :
  • 211000Z 31009KT 9999 SCT012 FEW045CB 10/10 Q1011 RERA NOSIG
  • 210930Z 32008KT 8000 -TSRA SCT012 FEW040CB BKN050 09/09 Q1012 NOSIG
  • 210900Z 30005KT 270V330 3000 TSRA BR SCT012 SCT040CB BKN050 09/09 Q1012 NOSIG
  • 210830Z 31006KT 3000 TSRA BR FEW010 SCT028 BKN045CB 09/09 Q1012 NOSIG
  • 210800Z 27006KT 6000 -TSRA FEW010 SCT025 BKN045CB 09/09 Q1011 NOSIG

TAF TAF LELC
Valid from the 21 at 06:00 until the 22 at 06:00 UTC


210500Z 2106/2206 35010KT 9999 SCT020 BKN030 TX14/2113Z TN07/2206Z
TEMPO 2106/2119 4000 SHRA SCT020 BKN030TCU
PROB40
TEMPO 2106/2110 01020G30KT 3000 TSRA SCT020 BKN030CB
BECMG 2109/2112 11008KT



MET'MAP, your aeronautical weather chart ! - Copyright ORBIFLY December 2007 - Disclaimer

ORBIFLY MET'MAP TEAM :

Programming & Development : Alexandra Zaïnal
Concept & original design : Baudouin d'Aumeries
Assistance for programming : Marc-Olivier Méhu
Technical & hardware support : Manuel Goepfert

Contact : metmap@orbifly.com




SOURCES & CREDITS :

   NOAA